createdAt,value
2018-11-02T00:00:37.929Z,16.42
2018-11-02T00:01:42.465Z,15.38
2018-11-02T00:02:47.006Z,16.12
2018-11-02T00:03:51.565Z,16.32
2018-11-02T00:04:56.145Z,14.90
2018-11-02T00:06:16.481Z,15.68
2018-11-02T00:07:36.251Z,16.02
2018-11-02T00:08:56.818Z,15.50
2018-11-02T00:10:01.399Z,15.23
2018-11-02T00:11:05.872Z,15.68
2018-11-02T00:12:10.555Z,16.27
2018-11-02T00:13:15.020Z,15.70
2018-11-02T00:14:19.524Z,17.30
2018-11-02T00:15:24.109Z,17.48
2018-11-02T00:16:28.595Z,15.93
2018-11-02T00:17:33.097Z,16.48
2018-11-02T00:18:37.632Z,17.02
2018-11-02T00:19:42.690Z,16.60
2018-11-02T00:20:47.293Z,17.10
2018-11-02T00:21:51.811Z,16.42
2018-11-02T00:22:56.332Z,15.38
2018-11-02T00:24:00.887Z,16.37
2018-11-02T00:25:05.533Z,16.62
2018-11-02T00:26:10.000Z,18.17
2018-11-02T00:27:14.486Z,16.17
2018-11-02T00:28:18.979Z,17.05
2018-11-02T00:29:23.522Z,16.40
2018-11-02T00:30:28.038Z,15.40
2018-11-02T00:31:32.960Z,17.32
2018-11-02T00:32:37.517Z,16.82
2018-11-02T00:33:42.115Z,16.62
2018-11-02T00:34:46.676Z,17.17
2018-11-02T00:35:51.123Z,15.53
2018-11-02T00:36:55.696Z,17.27
2018-11-02T00:38:00.924Z,16.48
2018-11-02T00:39:06.641Z,17.65
2018-11-02T00:40:11.192Z,16.55
2018-11-02T00:41:15.635Z,17.10
2018-11-02T00:42:20.172Z,15.85
2018-11-02T00:43:24.717Z,16.65
2018-11-02T00:44:29.383Z,19.20
2018-11-02T00:45:33.941Z,20.45
2018-11-02T00:46:38.900Z,18.77
2018-11-02T00:47:43.365Z,17.55
2018-11-02T00:48:47.829Z,16.50
2018-11-02T00:49:52.395Z,17.05
2018-11-02T00:50:56.997Z,16.65
2018-11-02T00:52:01.489Z,16.17
2018-11-02T00:53:06.694Z,17.32
2018-11-02T00:54:11.212Z,16.50
2018-11-02T00:55:15.691Z,17.32
2018-11-02T00:56:20.176Z,16.65
2018-11-02T00:57:24.947Z,15.18
2018-11-02T00:58:29.450Z,16.35
2018-11-02T00:59:33.918Z,16.48
2018-11-02T01:00:38.388Z,16.45
2018-11-02T01:01:42.976Z,17.07
2018-11-02T01:02:47.444Z,17.12
2018-11-02T01:03:51.906Z,17.40
2018-11-02T01:04:56.373Z,16.67
2018-11-02T01:06:00.848Z,18.00
2018-11-02T01:07:06.009Z,16.70
2018-11-02T01:08:10.492Z,16.85
2018-11-02T01:09:15.124Z,16.60
2018-11-02T01:10:20.776Z,16.67
2018-11-02T01:11:25.405Z,17.02
2018-11-02T01:12:29.954Z,16.23
2018-11-02T01:13:34.504Z,16.12
2018-11-02T01:14:38.968Z,17.75
2018-11-02T01:15:43.437Z,16.62
2018-11-02T01:16:47.996Z,17.12
2018-11-02T01:17:52.501Z,15.53
2018-11-02T01:18:56.973Z,16.15
2018-11-02T01:20:01.430Z,16.90
2018-11-02T01:21:05.941Z,16.90
2018-11-02T01:22:10.541Z,16.45
2018-11-02T01:23:15.088Z,16.17
2018-11-02T01:24:19.558Z,16.75
2018-11-02T01:25:24.117Z,15.98
2018-11-02T01:26:28.785Z,16.27
2018-11-02T01:27:33.348Z,16.50
2018-11-02T01:28:37.874Z,16.77
2018-11-02T01:29:42.441Z,16.75
2018-11-02T01:30:47.022Z,17.17
2018-11-02T01:31:51.736Z,15.70
2018-11-02T01:32:56.275Z,17.07
2018-11-02T01:34:00.842Z,15.85
2018-11-02T01:35:06.305Z,16.00
2018-11-02T01:36:11.144Z,16.62
2018-11-02T01:37:15.696Z,15.85
2018-11-02T01:38:20.163Z,16.40
2018-11-02T01:39:24.763Z,16.48
2018-11-02T01:40:29.280Z,15.23
2018-11-02T01:41:33.792Z,16.48
2018-11-02T01:42:38.280Z,15.85
2018-11-02T01:43:42.752Z,16.42
2018-11-02T01:44:47.302Z,17.73
2018-11-02T01:45:52.441Z,16.23
2018-11-02T01:46:56.982Z,15.58
2018-11-02T01:48:01.458Z,16.30
2018-11-02T01:49:06.493Z,16.70
2018-11-02T01:50:11.049Z,16.50
2018-11-02T01:51:15.619Z,16.42
2018-11-02T01:52:20.154Z,16.87
2018-11-02T01:53:24.778Z,15.80
2018-11-02T01:54:29.306Z,16.75
2018-11-02T01:55:33.854Z,16.93
2018-11-02T01:56:38.397Z,17.02
2018-11-02T01:57:42.946Z,16.67
2018-11-02T01:58:47.512Z,15.30
2018-11-02T01:59:52.052Z,16.95
2018-11-02T02:00:56.603Z,16.35
2018-11-02T02:02:01.170Z,17.52
2018-11-02T02:03:05.851Z,16.82
2018-11-02T02:04:10.376Z,16.67
2018-11-02T02:05:14.832Z,17.32
2018-11-02T02:06:19.381Z,16.67
2018-11-02T02:07:23.851Z,17.77
2018-11-02T02:08:28.434Z,16.27
2018-11-02T02:09:33.005Z,16.73
2018-11-02T02:10:37.545Z,17.02
2018-11-02T02:11:42.101Z,16.65
2018-11-02T02:12:46.635Z,16.45
2018-11-02T02:13:51.220Z,17.55
2018-11-02T02:14:55.744Z,18.90
2018-11-02T02:16:00.481Z,19.27
2018-11-02T02:17:05.059Z,18.73
2018-11-02T02:18:09.508Z,16.75
2018-11-02T02:19:14.051Z,16.55
2018-11-02T02:20:18.566Z,17.50
2018-11-02T02:21:23.086Z,17.15
2018-11-02T02:22:27.642Z,18.62
2018-11-02T02:23:32.206Z,18.55
2018-11-02T02:24:36.749Z,17.27
2018-11-02T02:25:41.269Z,17.30
2018-11-02T02:26:45.787Z,18.35
2018-11-02T02:27:50.412Z,16.70
2018-11-02T02:28:54.946Z,18.40
2018-11-02T02:29:59.398Z,17.65
2018-11-02T02:31:03.931Z,17.32
2018-11-02T02:32:08.636Z,17.70
2018-11-02T02:33:13.178Z,18.73
2018-11-02T02:34:17.739Z,17.45
2018-11-02T02:35:22.238Z,19.10
2018-11-02T02:36:26.768Z,17.90
2018-11-02T02:37:31.309Z,17.98
2018-11-02T02:38:35.861Z,17.90
2018-11-02T02:39:40.439Z,18.12
2018-11-02T02:40:44.969Z,18.37
2018-11-02T02:41:49.494Z,19.67
2018-11-02T02:42:54.090Z,20.32
2018-11-02T02:43:58.620Z,18.20
2018-11-02T02:45:03.213Z,19.02
2018-11-02T02:46:07.790Z,17.82
2018-11-02T02:47:12.301Z,19.23
2018-11-02T02:48:16.862Z,17.15
2018-11-02T02:49:21.396Z,18.10
2018-11-02T02:50:25.923Z,18.50
2018-11-02T02:51:30.387Z,17.00
2018-11-02T02:52:34.827Z,17.75
2018-11-02T02:53:39.288Z,19.23
2018-11-02T02:54:43.797Z,16.87
2018-11-02T02:55:48.381Z,18.32
2018-11-02T02:56:52.898Z,17.75
2018-11-02T02:57:57.449Z,18.40
2018-11-02T02:59:02.006Z,18.00
2018-11-02T03:00:08.247Z,18.52
2018-11-02T03:01:12.847Z,18.85
2018-11-02T03:02:17.418Z,19.23
2018-11-02T03:03:21.941Z,17.92
2018-11-02T03:04:26.731Z,19.95
2018-11-02T03:05:31.285Z,19.57
2018-11-02T03:06:35.818Z,19.42
2018-11-02T03:07:40.964Z,17.80
2018-11-02T03:08:45.509Z,18.23
2018-11-02T03:09:49.974Z,18.23
2018-11-02T03:10:54.603Z,18.32
2018-11-02T03:11:59.101Z,18.52
2018-11-02T03:13:03.565Z,19.70
2018-11-02T03:14:08.146Z,18.40
2018-11-02T03:15:12.920Z,19.23
2018-11-02T03:16:17.434Z,20.90
2018-11-02T03:17:21.987Z,19.75
2018-11-02T03:18:26.597Z,19.82
2018-11-02T03:19:31.394Z,19.67
2018-11-02T03:20:35.843Z,18.27
2018-11-02T03:21:40.441Z,20.20
2018-11-02T03:22:45.151Z,19.17
2018-11-02T03:23:49.546Z,19.67
2018-11-02T03:24:54.002Z,19.87
2018-11-02T03:25:58.472Z,20.25
2018-11-02T03:27:03.033Z,19.77
2018-11-02T03:28:07.593Z,19.20
2018-11-02T03:29:12.306Z,19.82
2018-11-02T03:30:16.824Z,19.62
2018-11-02T03:31:21.394Z,21.05
2018-11-02T03:32:25.923Z,18.80
2018-11-02T03:33:30.533Z,18.70
2018-11-02T03:34:34.990Z,18.67
2018-11-02T03:35:39.582Z,19.55
2018-11-02T03:36:44.097Z,20.08
2018-11-02T03:37:48.619Z,18.27
2018-11-02T03:38:53.186Z,19.37
2018-11-02T03:39:57.721Z,18.77
2018-11-02T03:41:02.347Z,20.12
2018-11-02T03:42:07.453Z,20.23
2018-11-02T03:43:12.001Z,19.57
2018-11-02T03:44:16.560Z,20.10
2018-11-02T03:45:21.079Z,18.50
2018-11-02T03:46:25.627Z,19.80
2018-11-02T03:47:30.204Z,22.13
2018-11-02T03:48:34.744Z,18.82
2018-11-02T03:49:39.681Z,20.57
2018-11-02T03:50:44.254Z,19.67
2018-11-02T03:51:48.791Z,19.23
2018-11-02T03:52:53.757Z,20.60
2018-11-02T03:53:58.837Z,20.15
2018-11-02T03:55:03.853Z,20.25
2018-11-02T03:56:08.732Z,20.62
2018-11-02T03:57:13.256Z,18.98
2018-11-02T03:58:17.826Z,19.90
2018-11-02T03:59:22.400Z,18.80
2018-11-02T04:00:27.575Z,19.67
2018-11-02T04:01:32.119Z,21.42
2018-11-02T04:02:36.709Z,20.70
2018-11-02T04:03:41.485Z,19.65
2018-11-02T04:04:46.081Z,20.43
2018-11-02T04:05:50.597Z,19.37
2018-11-02T04:06:55.149Z,19.73
2018-11-02T04:07:59.699Z,19.90
2018-11-02T04:09:04.658Z,19.30
2018-11-02T04:10:10.420Z,20.25
2018-11-02T04:11:15.080Z,18.85
2018-11-02T04:12:19.591Z,19.82
2018-11-02T04:13:24.140Z,19.02
2018-11-02T04:14:28.653Z,18.70
2018-11-02T04:15:33.232Z,19.23
2018-11-02T04:16:37.789Z,19.45
2018-11-02T04:17:42.347Z,18.77
2018-11-02T04:18:46.869Z,20.45
2018-11-02T04:19:51.351Z,21.45
2018-11-02T04:20:55.869Z,20.82
2018-11-02T04:22:00.413Z,19.62
2018-11-02T04:23:04.965Z,21.00
2018-11-02T04:24:09.486Z,21.57
2018-11-02T04:25:13.961Z,22.02
2018-11-02T04:26:18.530Z,20.35
2018-11-02T04:27:23.081Z,20.10
2018-11-02T04:28:27.664Z,19.25
2018-11-02T04:29:32.208Z,20.45
2018-11-02T04:30:36.736Z,20.60
2018-11-02T04:31:41.702Z,21.07
2018-11-02T04:32:46.302Z,19.65
2018-11-02T04:33:50.790Z,20.32
2018-11-02T04:34:55.425Z,19.75
2018-11-02T04:35:59.970Z,20.05
2018-11-02T04:37:04.569Z,19.87
2018-11-02T04:38:09.130Z,20.27
2018-11-02T04:39:14.706Z,19.73
2018-11-02T04:40:19.218Z,19.92
2018-11-02T04:41:23.772Z,19.70
2018-11-02T04:42:28.303Z,20.30
2018-11-02T04:43:32.833Z,20.23
2018-11-02T04:44:37.377Z,20.35
2018-11-02T04:45:41.959Z,19.57
2018-11-02T04:46:46.519Z,20.90
2018-11-02T04:47:50.969Z,20.40
2018-11-02T04:48:55.505Z,20.02
2018-11-02T04:49:59.993Z,19.50
2018-11-02T04:51:04.597Z,20.48
2018-11-02T04:52:08.982Z,21.30
2018-11-02T04:53:13.446Z,19.37
2018-11-02T04:54:17.990Z,19.27
2018-11-02T04:55:22.461Z,19.10
2018-11-02T04:56:26.946Z,19.60
2018-11-02T04:57:31.455Z,20.00
2018-11-02T04:58:35.919Z,18.45
2018-11-02T04:59:40.471Z,20.02
2018-11-02T05:00:45.018Z,20.70
2018-11-02T05:01:49.546Z,20.08
2018-11-02T05:02:54.165Z,20.48
2018-11-02T05:03:58.702Z,20.32
2018-11-02T05:05:03.233Z,20.45
2018-11-02T05:06:07.796Z,19.07
2018-11-02T05:07:12.384Z,19.45
2018-11-02T05:08:16.890Z,20.92
2018-11-02T05:09:21.492Z,19.77
2018-11-02T05:10:25.940Z,20.70
2018-11-02T05:11:30.618Z,20.82
2018-11-02T05:12:35.097Z,20.52
2018-11-02T05:13:39.689Z,21.62
2018-11-02T05:14:44.269Z,21.77
2018-11-02T05:15:48.836Z,20.65
2018-11-02T05:16:53.375Z,21.50
2018-11-02T05:17:57.935Z,21.82
2018-11-02T05:19:02.468Z,20.50
2018-11-02T05:20:08.424Z,20.95
2018-11-02T05:21:13.033Z,21.60
2018-11-02T05:22:17.494Z,20.72
2018-11-02T05:23:22.094Z,22.65
2018-11-02T05:24:26.652Z,22.00
2018-11-02T05:25:31.202Z,21.75
2018-11-02T05:26:35.752Z,20.90
2018-11-02T05:27:40.361Z,22.15
2018-11-02T05:28:44.886Z,21.27
2018-11-02T05:29:49.448Z,21.10
2018-11-02T05:30:54.089Z,20.92
2018-11-02T05:31:58.615Z,22.65
2018-11-02T05:33:03.139Z,22.05
2018-11-02T05:34:08.058Z,20.92
2018-11-02T05:35:12.645Z,22.40
2018-11-02T05:36:17.223Z,20.55
2018-11-02T05:37:21.837Z,20.88
2018-11-02T05:38:26.355Z,21.40
2018-11-02T05:39:30.975Z,20.85
2018-11-02T05:40:35.904Z,20.90
2018-11-02T05:41:40.377Z,21.90
2018-11-02T05:42:44.927Z,21.02
2018-11-02T05:43:49.391Z,21.42
2018-11-02T05:44:53.833Z,22.90
2018-11-02T05:45:58.364Z,22.80
2018-11-02T05:47:02.891Z,22.45
2018-11-02T05:48:07.477Z,22.02
2018-11-02T05:49:11.996Z,22.82
2018-11-02T05:50:16.522Z,22.32
2018-11-02T05:51:21.101Z,24.15
2018-11-02T05:52:25.662Z,22.45
2018-11-02T05:53:30.211Z,23.20
2018-11-02T05:54:34.741Z,23.50
2018-11-02T05:55:39.289Z,24.43
2018-11-02T05:56:43.830Z,23.77
2018-11-02T05:57:48.373Z,22.82
2018-11-02T05:58:52.919Z,23.18
2018-11-02T05:59:57.460Z,23.12
2018-11-02T06:01:01.987Z,24.40
2018-11-02T06:02:06.562Z,24.45
2018-11-02T06:03:11.355Z,24.82
2018-11-02T06:04:15.966Z,24.23
2018-11-02T06:05:20.515Z,24.23
2018-11-02T06:06:25.044Z,24.60
2018-11-02T06:07:29.613Z,25.97
2018-11-02T06:08:34.086Z,24.60
2018-11-02T06:09:38.676Z,26.25
2018-11-02T06:10:44.141Z,26.05
2018-11-02T06:11:48.659Z,24.35
2018-11-02T06:12:53.210Z,27.67
2018-11-02T06:13:57.728Z,25.55
2018-11-02T06:15:02.301Z,24.82
2018-11-02T06:16:06.841Z,25.23
2018-11-02T06:17:11.426Z,24.25
2018-11-02T06:18:15.960Z,26.00
2018-11-02T06:19:20.546Z,23.87
2018-11-02T06:20:25.061Z,25.43
2018-11-02T06:21:29.661Z,24.32
2018-11-02T06:22:34.189Z,24.35
2018-11-02T06:23:38.702Z,24.87
2018-11-02T06:24:43.258Z,26.00
2018-11-02T06:25:47.841Z,24.98
2018-11-02T06:26:52.395Z,25.97
2018-11-02T06:27:56.916Z,25.17
2018-11-02T06:29:01.586Z,26.52
2018-11-02T06:30:07.394Z,25.00
2018-11-02T06:31:11.961Z,24.25
2018-11-02T06:32:16.526Z,25.35
2018-11-02T06:33:21.068Z,27.60
2018-11-02T06:34:25.592Z,25.25
2018-11-02T06:35:30.449Z,23.77
2018-11-02T06:36:35.076Z,24.57
2018-11-02T06:37:39.735Z,25.45
2018-11-02T06:38:44.354Z,25.23
2018-11-02T06:39:48.862Z,25.85
2018-11-02T06:40:53.321Z,26.15
2018-11-02T06:41:57.823Z,25.92
2018-11-02T06:43:02.354Z,25.90
2018-11-02T06:44:06.914Z,26.15
2018-11-02T06:45:12.005Z,25.50
2018-11-02T06:46:16.608Z,25.02
2018-11-02T06:47:22.052Z,24.63
2018-11-02T06:48:27.004Z,24.87
2018-11-02T06:49:31.602Z,25.25
2018-11-02T06:50:36.174Z,24.60
2018-11-02T06:51:40.724Z,25.40
2018-11-02T06:52:45.256Z,26.95
2018-11-02T06:53:49.837Z,25.08
2018-11-02T06:54:54.424Z,25.52
2018-11-02T06:55:58.939Z,25.12
2018-11-02T06:57:03.545Z,25.12
2018-11-02T06:58:08.010Z,27.00
2018-11-02T06:59:12.567Z,26.85
2018-11-02T07:00:17.208Z,26.35
2018-11-02T07:01:21.717Z,26.60
2018-11-02T07:02:26.249Z,26.07
2018-11-02T07:03:30.798Z,25.02
2018-11-02T07:04:35.347Z,25.10
2018-11-02T07:05:39.965Z,25.27
2018-11-02T07:06:44.727Z,26.33
2018-11-02T07:07:49.593Z,27.17
2018-11-02T07:08:54.509Z,26.15
2018-11-02T07:09:59.354Z,27.27
2018-11-02T07:11:04.213Z,25.08
2018-11-02T07:12:08.876Z,26.75
2018-11-02T07:13:13.652Z,25.75
2018-11-02T07:14:18.294Z,25.05
2018-11-02T07:15:27.794Z,25.37
2018-11-02T07:16:32.441Z,24.23
2018-11-02T07:17:38.056Z,25.40
2018-11-02T07:18:42.924Z,24.67
2018-11-02T07:19:47.537Z,23.83
2018-11-02T07:21:10.026Z,23.90
2018-11-02T07:22:14.573Z,24.23
2018-11-02T07:23:19.439Z,23.62
2018-11-02T07:24:24.060Z,25.77
2018-11-02T07:25:28.746Z,24.23
2018-11-02T07:27:36.075Z,23.20
2018-11-02T07:28:40.973Z,24.15
2018-11-02T07:29:45.600Z,23.50
2018-11-02T07:30:50.385Z,25.68
2018-11-02T07:31:55.239Z,27.02
2018-11-02T07:33:00.155Z,28.65
2018-11-02T07:34:05.438Z,31.50
2018-11-02T07:35:10.927Z,29.85
2018-11-02T07:36:15.776Z,28.98
2018-11-02T07:37:20.609Z,26.68
2018-11-02T07:38:25.201Z,26.02
2018-11-02T07:39:32.096Z,25.48
2018-11-02T07:40:36.695Z,25.52
2018-11-02T07:41:41.448Z,24.47
2018-11-02T07:42:46.097Z,23.47
2018-11-02T07:43:50.573Z,25.48
2018-11-02T07:44:55.113Z,22.82
2018-11-02T07:45:59.698Z,25.50
2018-11-02T07:47:04.406Z,24.82
2018-11-02T07:48:09.223Z,26.55
2018-11-02T07:49:13.980Z,23.25
2018-11-02T07:50:18.780Z,26.50
2018-11-02T07:51:23.571Z,25.00
2018-11-02T07:52:28.404Z,24.12
2018-11-02T07:53:33.208Z,24.20
2018-11-02T07:54:38.002Z,21.17
2018-11-02T07:55:42.934Z,22.60
2018-11-02T07:56:47.758Z,23.12
2018-11-02T07:57:52.483Z,19.30
2018-11-02T07:58:57.241Z,19.35
2018-11-02T08:00:02.024Z,18.30
2018-11-02T08:01:06.869Z,15.45
2018-11-02T08:02:11.641Z,16.30
2018-11-02T08:03:16.397Z,16.85
2018-11-02T08:04:21.194Z,17.07
2018-11-02T08:05:25.945Z,17.57
2018-11-02T08:06:30.779Z,16.75
2018-11-02T08:07:35.663Z,17.77
2018-11-02T08:08:41.299Z,17.48
2018-11-02T08:09:46.351Z,16.37
2018-11-02T08:10:51.437Z,15.00
2018-11-02T08:11:56.744Z,15.25
2018-11-02T08:13:02.295Z,14.70
2018-11-02T08:14:08.679Z,15.53
2018-11-02T08:15:13.810Z,12.93
2018-11-02T08:16:19.205Z,13.83
2018-11-02T08:17:23.921Z,13.62
2018-11-02T08:18:28.837Z,12.63
2018-11-02T08:19:33.561Z,12.43
2018-11-02T08:20:38.374Z,12.43
2018-11-02T08:21:43.155Z,12.58
2018-11-02T08:22:47.958Z,12.30
2018-11-02T08:23:52.764Z,12.47
2018-11-02T08:24:57.553Z,11.65
2018-11-02T08:26:02.373Z,12.25
2018-11-02T08:27:07.608Z,11.55
2018-11-02T08:28:12.398Z,11.63
2018-11-02T08:29:17.187Z,11.88
2018-11-02T08:30:21.970Z,12.23
2018-11-02T08:31:26.785Z,12.43
2018-11-02T08:32:31.596Z,11.35
2018-11-02T08:33:36.321Z,13.13
2018-11-02T08:34:41.156Z,11.63
2018-11-02T08:35:45.953Z,12.45
2018-11-02T08:36:50.784Z,11.93
2018-11-02T08:37:55.577Z,12.05
2018-11-02T08:39:00.437Z,12.40
2018-11-02T08:40:08.938Z,11.97
2018-11-02T08:41:13.745Z,12.40
2018-11-02T08:42:18.553Z,11.12
2018-11-02T08:43:23.360Z,11.40
2018-11-02T08:44:28.216Z,10.00
2018-11-02T08:45:33.003Z,10.48
2018-11-02T08:46:37.875Z,10.43
2018-11-02T08:47:42.610Z,10.58
2018-11-02T08:48:47.390Z,10.75
2018-11-02T08:49:52.203Z,10.45
2018-11-02T08:50:57.014Z,11.70
2018-11-02T08:52:01.819Z,10.65
2018-11-02T08:53:06.652Z,9.73
2018-11-02T08:54:11.424Z,10.40
2018-11-02T08:55:16.181Z,11.68
2018-11-02T08:56:21.029Z,10.70
2018-11-02T08:57:25.839Z,9.83
2018-11-02T08:58:30.743Z,10.23
2018-11-02T08:59:35.626Z,10.75
2018-11-02T09:00:40.230Z,10.58
2018-11-02T09:01:45.081Z,10.68
2018-11-02T09:02:49.868Z,10.78
2018-11-02T09:03:54.568Z,10.70
2018-11-02T09:04:59.404Z,10.23
2018-11-02T09:06:04.177Z,10.88
2018-11-02T09:07:09.017Z,13.08
2018-11-02T09:08:13.861Z,17.42
2018-11-02T09:09:18.574Z,14.05
2018-11-02T09:10:23.257Z,13.58
2018-11-02T09:11:27.886Z,15.03
2018-11-02T09:12:32.431Z,11.50
2018-11-02T09:13:36.973Z,10.58
2018-11-02T09:14:41.528Z,10.30
2018-11-02T09:15:46.074Z,11.05
2018-11-02T09:16:50.587Z,9.60
2018-11-02T09:17:55.106Z,9.58
2018-11-02T09:18:59.704Z,10.18
2018-11-02T09:20:04.729Z,10.30
2018-11-02T09:21:09.216Z,10.32
2018-11-02T09:22:13.766Z,9.50
2018-11-02T09:23:18.351Z,12.80
2018-11-02T09:24:22.946Z,10.58
2018-11-02T09:25:27.615Z,9.78
2018-11-02T09:26:32.100Z,10.00
2018-11-02T09:27:36.655Z,11.18
2018-11-02T09:28:41.164Z,8.93
2018-11-02T09:29:45.713Z,9.35
2018-11-02T09:30:50.237Z,8.35
2018-11-02T09:31:54.741Z,8.40
2018-11-02T09:32:59.180Z,8.35
2018-11-02T09:34:03.613Z,9.53
2018-11-02T09:35:08.225Z,7.78
2018-11-02T09:36:12.740Z,9.18
2018-11-02T09:37:17.281Z,9.95
2018-11-02T09:38:21.793Z,8.33
2018-11-02T09:39:26.256Z,9.15
2018-11-02T09:40:30.819Z,7.87
2018-11-02T09:41:35.286Z,7.80
2018-11-02T09:42:39.812Z,8.58
2018-11-02T09:43:44.372Z,8.05
2018-11-02T09:44:48.907Z,8.38
2018-11-02T09:45:53.391Z,8.90
2018-11-02T09:46:57.943Z,9.35
2018-11-02T09:48:02.481Z,9.23
2018-11-02T09:49:07.057Z,8.75
2018-11-02T09:50:12.219Z,8.20
2018-11-02T09:51:16.781Z,8.43
2018-11-02T09:52:21.352Z,9.50
2018-11-02T09:53:25.920Z,8.90
2018-11-02T09:54:30.460Z,9.78
2018-11-02T09:55:34.943Z,8.95
2018-11-02T09:56:39.502Z,8.35
2018-11-02T09:57:44.891Z,8.43
2018-11-02T09:58:49.410Z,8.98
2018-11-02T09:59:54.039Z,9.00
2018-11-02T10:00:58.610Z,8.38
2018-11-02T10:02:03.246Z,8.38
2018-11-02T10:03:07.753Z,8.75
2018-11-02T10:04:12.413Z,8.63
2018-11-02T10:05:17.022Z,8.03
2018-11-02T10:06:21.589Z,9.68
2018-11-02T10:07:26.153Z,8.48
2018-11-02T10:08:30.805Z,9.10
2018-11-02T10:09:35.328Z,8.80
2018-11-02T10:10:39.816Z,8.43
2018-11-02T10:11:44.392Z,9.45
2018-11-02T10:12:48.940Z,8.58
2018-11-02T10:13:53.518Z,8.98
2018-11-02T10:14:58.073Z,8.95
2018-11-02T10:16:02.650Z,7.87
2018-11-02T10:17:07.298Z,9.05
2018-11-02T10:18:11.874Z,7.65
2018-11-02T10:19:16.436Z,8.90
2018-11-02T10:20:20.989Z,8.43
2018-11-02T10:21:25.533Z,8.23
2018-11-02T10:22:30.109Z,8.43
2018-11-02T10:23:34.671Z,7.37
2018-11-02T10:24:39.165Z,8.20
2018-11-02T10:25:43.731Z,7.78
2018-11-02T10:26:48.228Z,7.00
2018-11-02T10:27:52.934Z,7.75
2018-11-02T10:28:57.589Z,8.15
2018-11-02T10:30:02.455Z,7.20
2018-11-02T10:31:07.308Z,7.83
2018-11-02T10:32:11.851Z,7.37
2018-11-02T10:33:16.384Z,7.40
2018-11-02T10:34:21.001Z,7.12
2018-11-02T10:35:25.686Z,6.92
2018-11-02T10:36:30.699Z,6.58
2018-11-02T10:37:35.317Z,6.35
2018-11-02T10:38:39.881Z,7.35
2018-11-02T10:39:44.952Z,7.53
2018-11-02T10:40:52.367Z,6.87
2018-11-02T10:41:59.594Z,6.65
2018-11-02T10:43:10.728Z,6.50
2018-11-02T10:44:17.526Z,7.25
2018-11-02T10:45:23.447Z,7.15
2018-11-02T10:46:28.156Z,7.08
2018-11-02T10:47:32.852Z,6.97
2018-11-02T10:48:37.411Z,7.20
2018-11-02T10:49:41.970Z,7.15
2018-11-02T10:50:46.529Z,7.30
2018-11-02T10:51:51.144Z,7.53
2018-11-02T10:52:55.719Z,7.83
2018-11-02T10:54:00.282Z,7.28
2018-11-02T10:55:04.973Z,6.62
2018-11-02T10:56:09.556Z,7.85
2018-11-02T10:57:14.045Z,7.28
2018-11-02T10:58:18.609Z,6.17
2018-11-02T10:59:23.218Z,6.28
2018-11-02T11:00:32.866Z,7.08
2018-11-02T11:01:42.589Z,7.08
2018-11-02T11:02:47.185Z,7.25
2018-11-02T11:03:51.789Z,6.97
2018-11-02T11:04:56.800Z,7.50
2018-11-02T11:06:01.349Z,7.60
2018-11-02T11:07:42.269Z,6.37
2018-11-02T11:08:46.796Z,6.03
2018-11-02T11:09:51.544Z,7.47
2018-11-02T11:10:56.141Z,6.58
2018-11-02T11:12:00.869Z,6.22
2018-11-02T11:13:05.751Z,8.00
2018-11-02T11:14:10.394Z,7.53
2018-11-02T11:15:14.925Z,6.92
2018-11-02T11:16:19.484Z,5.97
2018-11-02T11:17:24.132Z,6.40
2018-11-02T11:18:28.723Z,6.55
2018-11-02T11:19:33.251Z,6.97
2018-11-02T11:20:37.834Z,7.12
2018-11-02T11:21:43.038Z,7.05
2018-11-02T11:22:47.583Z,6.90
2018-11-02T11:23:52.196Z,6.95
2018-11-02T11:24:56.988Z,6.67
2018-11-02T11:26:01.482Z,6.50
2018-11-02T11:27:06.240Z,6.12
2018-11-02T11:28:10.903Z,7.17
2018-11-02T11:29:15.515Z,6.17
2018-11-02T11:30:20.797Z,6.90
2018-11-02T11:31:25.335Z,6.50
2018-11-02T11:32:29.835Z,7.65
2018-11-02T11:33:34.615Z,7.10
2018-11-02T11:34:39.223Z,6.80
2018-11-02T11:35:43.704Z,8.35
2018-11-02T11:36:48.218Z,7.97
2018-11-02T11:37:52.734Z,6.72
2018-11-02T11:38:57.297Z,6.95
2018-11-02T11:40:01.782Z,7.22
2018-11-02T11:41:06.380Z,7.00
2018-11-02T11:42:10.943Z,8.23
2018-11-02T11:43:15.516Z,8.08
2018-11-02T11:44:20.121Z,9.08
2018-11-02T11:45:24.651Z,7.78
2018-11-02T11:46:29.223Z,7.33
2018-11-02T11:47:33.843Z,7.28
2018-11-02T11:48:38.494Z,7.08
2018-11-02T11:49:43.079Z,7.12
2018-11-02T11:50:47.641Z,6.87
2018-11-02T11:51:52.244Z,7.70
2018-11-02T11:52:56.804Z,6.65
2018-11-02T11:54:01.523Z,6.78
2018-11-02T11:55:07.685Z,7.40
2018-11-02T11:56:37.285Z,7.80
2018-11-02T11:57:42.774Z,7.37
2018-11-02T11:58:47.388Z,9.65
2018-11-02T11:59:52.084Z,10.88
2018-11-02T12:00:56.624Z,13.95
2018-11-02T12:02:01.431Z,16.52
2018-11-02T12:03:05.927Z,12.13
2018-11-02T12:04:10.491Z,9.48
2018-11-02T12:05:16.322Z,9.48
2018-11-02T12:06:20.828Z,9.83
2018-11-02T12:07:25.327Z,8.65
2018-11-02T12:08:29.865Z,8.35
2018-11-02T12:09:34.466Z,8.53
2018-11-02T12:10:39.066Z,8.45
2018-11-02T12:11:43.653Z,7.17
2018-11-02T12:12:48.335Z,7.80
2018-11-02T12:13:52.803Z,7.83
2018-11-02T12:14:57.482Z,7.75
2018-11-02T12:16:02.015Z,7.17
2018-11-02T12:17:06.694Z,7.65
2018-11-02T12:18:11.286Z,7.03
2018-11-02T12:19:15.923Z,7.80
2018-11-02T12:20:22.944Z,6.83
2018-11-02T12:21:27.543Z,7.80
2018-11-02T12:22:32.109Z,6.30
2018-11-02T12:23:36.686Z,7.58
2018-11-02T12:24:41.188Z,7.72
2018-11-02T12:25:45.740Z,7.03
2018-11-02T12:26:50.308Z,6.92
2018-11-02T12:27:54.821Z,8.05
2018-11-02T12:28:59.386Z,7.62
2018-11-02T12:30:04.063Z,6.90
2018-11-02T12:31:08.592Z,6.47
2018-11-02T12:32:13.073Z,7.00
2018-11-02T12:33:17.569Z,6.30
2018-11-02T12:34:22.100Z,7.72
2018-11-02T12:35:26.891Z,6.85
2018-11-02T12:36:31.571Z,7.25
2018-11-02T12:37:36.326Z,6.65
2018-11-02T12:38:40.854Z,7.08
2018-11-02T12:39:45.409Z,7.03
2018-11-02T12:40:49.965Z,7.33
2018-11-02T12:41:54.489Z,6.97
2018-11-02T12:42:59.070Z,6.20
2018-11-02T12:44:03.609Z,7.17
2018-11-02T12:45:09.801Z,7.40
2018-11-02T12:46:14.402Z,7.78
2018-11-02T12:47:18.961Z,7.12
2018-11-02T12:48:23.541Z,7.00
2018-11-02T12:49:28.255Z,6.87
2018-11-02T12:50:32.606Z,6.80
2018-11-02T12:51:37.137Z,7.47
2018-11-02T12:52:41.915Z,7.15
2018-11-02T12:53:46.384Z,7.03
2018-11-02T12:54:50.869Z,6.92
2018-11-02T12:55:55.328Z,7.17
2018-11-02T12:56:59.872Z,7.50
2018-11-02T12:58:04.449Z,6.60
2018-11-02T12:59:09.315Z,8.13
2018-11-02T13:00:16.501Z,7.12
2018-11-02T13:01:21.037Z,7.15
2018-11-02T13:02:25.704Z,7.03
2018-11-02T13:03:30.334Z,6.22
2018-11-02T13:04:34.850Z,6.65
2018-11-02T13:05:39.468Z,7.37
2018-11-02T13:06:43.967Z,7.47
2018-11-02T13:07:48.502Z,7.47
2018-11-02T13:08:52.964Z,6.95
2018-11-02T13:10:00.560Z,7.15
2018-11-02T13:11:06.017Z,7.55
2018-11-02T13:12:10.583Z,6.65
2018-11-02T13:13:15.142Z,7.03
2018-11-02T13:14:19.674Z,7.00
2018-11-02T13:15:24.724Z,6.83
2018-11-02T13:16:29.315Z,7.28
2018-11-02T13:17:34.007Z,6.70
2018-11-02T13:18:38.495Z,6.97
2018-11-02T13:19:43.059Z,7.28
2018-11-02T13:20:47.638Z,7.53
2018-11-02T13:21:52.299Z,7.30
2018-11-02T13:22:56.750Z,7.25
2018-11-02T13:24:01.314Z,7.92
2018-11-02T13:25:07.094Z,7.30
2018-11-02T13:26:11.753Z,6.80
2018-11-02T13:27:16.105Z,6.90
2018-11-02T13:28:21.043Z,7.17
2018-11-02T13:29:25.635Z,6.92
2018-11-02T13:30:30.345Z,6.65
2018-11-02T13:31:34.787Z,6.62
2018-11-02T13:32:39.378Z,7.47
2018-11-02T13:33:43.843Z,7.08
2018-11-02T13:34:48.311Z,7.22
2018-11-02T13:35:52.925Z,8.90
2018-11-02T13:36:57.529Z,7.85
2018-11-02T13:38:02.090Z,7.95
2018-11-02T13:39:09.410Z,8.00
2018-11-02T13:40:16.126Z,6.97
2018-11-02T13:41:20.677Z,8.00
2018-11-02T13:42:25.213Z,7.97
2018-11-02T13:43:29.821Z,7.37
2018-11-02T13:44:34.318Z,8.13
2018-11-02T13:45:38.792Z,7.72
2018-11-02T13:46:43.286Z,8.03
2018-11-02T13:47:47.844Z,8.75
2018-11-02T13:48:52.427Z,6.92
2018-11-02T13:49:56.974Z,8.35
2018-11-02T13:51:01.542Z,7.97
2018-11-02T13:52:07.111Z,7.65
2018-11-02T13:53:11.631Z,8.38
2018-11-02T13:54:16.177Z,8.28
2018-11-02T13:55:20.706Z,8.28
2018-11-02T13:56:25.693Z,8.18
2018-11-02T13:57:30.290Z,8.55
2018-11-02T13:58:34.853Z,9.28
2018-11-02T13:59:39.493Z,8.73
2018-11-02T14:00:44.032Z,9.20
2018-11-02T14:01:48.568Z,8.15
2018-11-02T14:02:53.081Z,8.25
2018-11-02T14:03:57.600Z,8.88
2018-11-02T14:05:02.253Z,8.93
2018-11-02T14:06:06.799Z,9.55